Time;durP1;ratioP1;P1;durP2;ratioP2;P2;SDS_P1;SDS_P2;PMS_P1;PMS_P2;Temp;Humidity;BMP_temperature;BMP_pressure;BME280_temperature;BME280_humidity;BME280_pressure;Samples;Min_cycle;Max_cycle;Signal;HPM_P1;HPM_P2
2022/01/13 00:01:30;;;;;;;60.58;17.83;;;;;;;;;;5051533;28;20160;-70
2022/01/13 00:03:57;;;;;;;57.33;17.85;;;;;;;;;;5053159;28;20049;-70
2022/01/13 00:06:24;;;;;;;56.17;16.23;;;;;;;;;;5052272;28;20062;-71
2022/01/13 00:08:50;;;;;;;49.40;14.52;;;;;;;;;;5045507;28;20049;-70
2022/01/13 00:11:16;;;;;;;62.25;17.70;;;;;;;;;;5053493;28;20150;-70
2022/01/13 00:21:37;;;;;;;50.75;16.35;;;;;;;;;;5052557;28;20102;-71
2022/01/13 00:24:05;;;;;;;55.80;17.10;;;;;;;;;;5052312;28;20084;-70
2022/01/13 00:26:33;;;;;;;59.22;16.42;;;;;;;;;;5052875;28;20059;-70
2022/01/13 00:29:02;;;;;;;47.70;15.32;;;;;;;;;;5052039;28;20056;-72
2022/01/13 00:31:32;;;;;;;49.53;15.50;;;;;;;;;;5047940;28;20551;-71
2022/01/13 00:34:00;;;;;;;49.10;14.98;;;;;;;;;;5051789;28;20532;-70
2022/01/13 00:36:31;;;;;;;55.75;16.83;;;;;;;;;;5046815;28;20053;-71
2022/01/13 00:38:58;;;;;;;46.72;15.52;;;;;;;;;;5038015;28;20057;-71
2022/01/13 00:41:29;;;;;;;40.60;14.15;;;;;;;;;;5052085;28;20046;-71
2022/01/13 00:43:56;;;;;;;44.75;14.45;;;;;;;;;;5053238;28;20060;-70
2022/01/13 00:46:25;;;;;;;43.75;15.77;;;;;;;;;;5052756;28;20437;-71
2022/01/13 00:48:52;;;;;;;43.03;14.73;;;;;;;;;;5051520;28;20050;-70
2022/01/13 00:51:23;;;;;;;48.17;15.43;;;;;;;;;;5052646;28;20050;-71
2022/01/13 00:53:50;;;;;;;50.33;14.75;;;;;;;;;;5052479;28;20057;-70
2022/01/13 00:56:16;;;;;;;45.90;15.70;;;;;;;;;;5042175;28;20477;-71
2022/01/13 00:58:43;;;;;;;51.33;16.48;;;;;;;;;;5052292;28;20053;-71
2022/01/13 01:01:09;;;;;;;50.00;16.58;;;;;;;;;;5079235;28;20513;-71
2022/01/13 01:03:36;;;;;;;55.25;16.90;;;;;;;;;;5052364;28;20112;-70
2022/01/13 01:06:04;;;;;;;59.13;17.88;;;;;;;;;;5052301;28;20053;-72
2022/01/13 01:08:31;;;;;;;51.15;17.20;;;;;;;;;;5051529;28;20077;-71
2022/01/13 01:11:00;;;;;;;64.30;16.00;;;;;;;;;;5052827;28;20061;-71
2022/01/13 01:13:30;;;;;;;46.95;15.77;;;;;;;;;;5051319;28;20057;-72
2022/01/13 01:15:59;;;;;;;41.78;14.90;;;;;;;;;;5052549;28;20149;-70
2022/01/13 01:23:35;;;;;;;51.95;15.68;;;;;;;;;;5052118;28;20053;-72
2022/01/13 01:26:19;;;;;;;44.65;14.40;;;;;;;;;;5052852;28;20056;-71
2022/01/13 01:28:50;;;;;;;47.97;15.75;;;;;;;;;;5052324;28;20134;-70
2022/01/13 01:31:23;;;;;;;59.67;16.90;;;;;;;;;;5051114;28;20069;-72
2022/01/13 01:34:01;;;;;;;51.67;15.35;;;;;;;;;;5052133;28;20062;-71
2022/01/13 01:36:27;;;;;;;57.83;16.45;;;;;;;;;;5049740;28;20505;-71
2022/01/13 01:38:56;;;;;;;50.13;16.90;;;;;;;;;;5051686;28;20057;-72
2022/01/13 01:41:22;;;;;;;51.97;14.80;;;;;;;;;;5051338;28;20060;-71
2022/01/13 01:43:50;;;;;;;54.33;15.80;;;;;;;;;;5051996;28;20058;-71
2022/01/13 01:46:17;;;;;;;68.97;15.07;;;;;;;;;;5051945;28;20432;-71
2022/01/13 01:48:43;;;;;;;53.95;16.92;;;;;;;;;;5051899;28;20045;-71
2022/01/13 01:51:09;;;;;;;57.58;15.75;;;;;;;;;;5052458;28;20063;-70
2022/01/13 01:53:36;;;;;;;51.63;15.18;;;;;;;;;;5051566;28;20480;-70
2022/01/13 01:56:02;;;;;;;40.17;15.27;;;;;;;;;;5052829;28;20050;-72
2022/01/13 01:58:29;;;;;;;37.95;13.00;;;;;;;;;;5051402;28;20059;-71
2022/01/13 02:00:55;;;;;;;47.55;13.98;;;;;;;;;;5051085;28;20539;-72
2022/01/13 02:03:23;;;;;;;49.30;14.55;;;;;;;;;;5051661;28;20054;-72
2022/01/13 02:05:50;;;;;;;51.38;14.93;;;;;;;;;;5052319;28;20061;-71
2022/01/13 02:08:16;;;;;;;74.57;18.67;;;;;;;;;;5050795;28;20471;-71
2022/01/13 02:10:43;;;;;;;44.00;14.20;;;;;;;;;;5051880;28;20079;-71
2022/01/13 02:13:12;;;;;;;58.20;14.50;;;;;;;;;;5051981;28;20053;-71
2022/01/13 02:15:49;;;;;;;65.50;16.08;;;;;;;;;;5050786;28;20050;-71
2022/01/13 02:18:15;;;;;;;46.25;15.57;;;;;;;;;;5052065;28;20058;-72
2022/01/13 02:20:43;;;;;;;82.85;17.50;;;;;;;;;;5051806;28;20050;-71
2022/01/13 02:23:09;;;;;;;67.60;15.32;;;;;;;;;;5050654;28;20059;-72
2022/01/13 02:25:36;;;;;;;74.22;15.55;;;;;;;;;;5053596;28;20057;-71
2022/01/13 02:28:02;;;;;;;76.00;16.42;;;;;;;;;;5054899;28;20137;-70
2022/01/13 02:30:28;;;;;;;67.63;15.65;;;;;;;;;;5054688;28;20056;-70
2022/01/13 02:32:55;;;;;;;59.63;18.15;;;;;;;;;;5054695;28;20057;-71
2022/01/13 02:35:24;;;;;;;58.63;15.75;;;;;;;;;;5054057;28;20137;-72
2022/01/13 02:37:50;;;;;;;78.47;16.90;;;;;;;;;;5054734;28;20064;-71
2022/01/13 02:40:17;;;;;;;78.13;15.95;;;;;;;;;;5054203;28;20068;-72
2022/01/13 02:42:43;;;;;;;63.28;16.15;;;;;;;;;;5053276;28;20076;-72
2022/01/13 02:45:16;;;;;;;48.90;14.48;;;;;;;;;;5053697;28;20556;-72
2022/01/13 02:50:10;;;;;;;76.88;15.57;;;;;;;;;;5054356;28;20064;-71
2022/01/13 02:52:37;;;;;;;52.65;13.82;;;;;;;;;;5054514;28;20531;-71
2022/01/13 02:55:04;;;;;;;71.50;16.40;;;;;;;;;;5054524;28;20049;-71
2022/01/13 02:57:32;;;;;;;61.50;15.82;;;;;;;;;;5053773;28;20081;-71
2022/01/13 02:59:59;;;;;;;81.85;15.45;;;;;;;;;;5052699;28;20147;-71
2022/01/13 03:02:30;;;;;;;70.90;14.82;;;;;;;;;;5052996;28;20057;-71
2022/01/13 03:04:57;;;;;;;56.55;15.30;;;;;;;;;;5040528;28;20087;-72
2022/01/13 03:07:25;;;;;;;79.43;15.80;;;;;;;;;;5054030;28;20053;-71
2022/01/13 03:09:51;;;;;;;73.07;14.70;;;;;;;;;;5053665;28;20058;-71
2022/01/13 03:12:18;;;;;;;77.53;15.10;;;;;;;;;;5053847;28;20059;-71
2022/01/13 03:14:44;;;;;;;64.20;14.63;;;;;;;;;;5054342;28;20480;-72
2022/01/13 03:17:10;;;;;;;55.85;15.30;;;;;;;;;;5052324;28;20105;-71
2022/01/13 03:19:37;;;;;;;108.70;15.95;;;;;;;;;;5054426;28;20060;-72
2022/01/13 03:22:03;;;;;;;100.03;16.70;;;;;;;;;;5054329;28;20493;-71
2022/01/13 03:24:31;;;;;;;98.93;17.05;;;;;;;;;;5053873;28;20054;-71
2022/01/13 03:27:01;;;;;;;122.53;15.27;;;;;;;;;;5053530;28;20060;-70
2022/01/13 03:29:28;;;;;;;60.90;15.02;;;;;;;;;;5053632;28;20053;-72
2022/01/13 03:31:55;;;;;;;68.70;14.90;;;;;;;;;;5053538;28;20064;-72
2022/01/13 03:34:21;;;;;;;79.07;15.00;;;;;;;;;;5050671;28;20527;-72
2022/01/13 03:36:47;;;;;;;77.45;15.30;;;;;;;;;;5053190;28;20145;-72
2022/01/13 03:39:14;;;;;;;59.30;15.18;;;;;;;;;;5052549;28;20107;-70
2022/01/13 03:41:40;;;;;;;95.90;17.30;;;;;;;;;;5053504;28;20088;-72
2022/01/13 03:44:15;;;;;;;101.88;17.40;;;;;;;;;;5054502;28;20060;-72
2022/01/13 03:46:42;;;;;;;75.13;16.98;;;;;;;;;;5052583;28;20501;-72
2022/01/13 03:49:09;;;;;;;73.78;17.58;;;;;;;;;;5052813;28;20402;-71
2022/01/13 03:52:00;;;;;;;102.65;18.33;;;;;;;;;;5053655;28;20049;-72
2022/01/13 03:54:36;;;;;;;99.15;17.73;;;;;;;;;;5052765;28;20054;-72
2022/01/13 03:57:27;;;;;;;86.18;17.73;;;;;;;;;;5054048;28;20053;-72
2022/01/13 04:00:12;;;;;;;105.57;18.00;;;;;;;;;;5034787;28;20054;-72
2022/01/13 04:02:38;;;;;;;135.82;21.75;;;;;;;;;;5039508;28;20064;-72
2022/01/13 04:05:05;;;;;;;91.65;18.65;;;;;;;;;;5053793;28;20057;-71
2022/01/13 04:07:31;;;;;;;67.78;17.98;;;;;;;;;;5053511;28;20054;-72
2022/01/13 04:10:00;;;;;;;108.68;20.48;;;;;;;;;;5053030;28;20054;-71
2022/01/13 04:12:27;;;;;;;83.45;20.00;;;;;;;;;;5051553;28;20058;-72
2022/01/13 04:15:00;;;;;;;111.30;22.02;;;;;;;;;;5051501;28;20049;-72
2022/01/13 04:17:27;;;;;;;78.68;19.52;;;;;;;;;;5052787;28;20053;-72
2022/01/13 04:19:54;;;;;;;110.30;20.60;;;;;;;;;;5052952;28;20180;-72
2022/01/13 04:22:20;;;;;;;136.15;22.52;;;;;;;;;;5052212;28;20053;-70
2022/01/13 04:24:47;;;;;;;98.70;21.75;;;;;;;;;;5052898;28;20067;-70
2022/01/13 04:27:25;;;;;;;79.03;19.38;;;;;;;;;;5052005;28;20056;-71
2022/01/13 04:30:23;;;;;;;77.07;18.67;;;;;;;;;;5049325;28;20052;-72
2022/01/13 04:32:46;;;;;;;142.37;23.53;;;;;;;;;;5052424;28;20053;-71
2022/01/13 04:35:13;;;;;;;88.05;19.90;;;;;;;;;;5052820;28;20519;-72
2022/01/13 04:37:39;;;;;;;76.55;19.63;;;;;;;;;;5052173;28;20057;-72
2022/01/13 04:40:08;;;;;;;100.13;20.98;;;;;;;;;;5051608;28;20053;-71
2022/01/13 04:42:36;;;;;;;100.20;20.75;;;;;;;;;;5052252;28;20496;-72
2022/01/13 04:45:03;;;;;;;103.68;21.52;;;;;;;;;;5052865;28;20510;-71
2022/01/13 04:47:30;;;;;;;83.68;19.42;;;;;;;;;;5050952;28;20111;-72
2022/01/13 04:49:56;;;;;;;77.85;18.35;;;;;;;;;;5052320;28;20056;-72
2022/01/13 04:52:22;;;;;;;83.18;18.85;;;;;;;;;;5052190;28;20123;-72
2022/01/13 04:54:49;;;;;;;89.15;18.55;;;;;;;;;;5052716;28;20139;-70
2022/01/13 04:57:17;;;;;;;103.63;19.67;;;;;;;;;;5052606;28;20053;-72
2022/01/13 04:59:44;;;;;;;86.70;19.02;;;;;;;;;;5051447;28;20095;-72
2022/01/13 05:02:11;;;;;;;102.18;19.92;;;;;;;;;;5051581;28;20062;-72
2022/01/13 05:04:39;;;;;;;77.93;20.27;;;;;;;;;;5050436;28;20132;-71
2022/01/13 05:07:05;;;;;;;78.80;18.85;;;;;;;;;;5043009;28;20049;-71
2022/01/13 05:09:31;;;;;;;82.30;18.30;;;;;;;;;;5050885;28;20050;-70
2022/01/13 05:11:59;;;;;;;99.32;18.88;;;;;;;;;;5052838;28;20566;-72
2022/01/13 05:14:26;;;;;;;62.63;18.20;;;;;;;;;;5051986;28;20072;-72
2022/01/13 05:19:24;;;;;;;90.22;19.77;;;;;;;;;;5052013;28;20058;-72
2022/01/13 05:24:26;;;;;;;63.55;18.83;;;;;;;;;;5050605;28;20497;-72
2022/01/13 05:26:57;;;;;;;110.97;18.83;;;;;;;;;;5051466;28;20068;-72
2022/01/13 05:29:23;;;;;;;104.75;19.10;;;;;;;;;;5051845;28;20525;-72
2022/01/13 05:31:50;;;;;;;91.47;18.55;;;;;;;;;;5050757;28;20192;-71
2022/01/13 05:34:16;;;;;;;83.43;17.67;;;;;;;;;;5048165;28;20148;-71
2022/01/13 05:37:03;;;;;;;78.50;18.35;;;;;;;;;;5047513;28;20054;-70
2022/01/13 05:39:29;;;;;;;64.07;17.90;;;;;;;;;;5050311;28;20552;-70
2022/01/13 05:41:55;;;;;;;94.40;18.25;;;;;;;;;;5050224;28;20508;-70
2022/01/13 05:44:22;;;;;;;72.10;18.33;;;;;;;;;;5050884;28;20057;-73
2022/01/13 05:46:48;;;;;;;96.32;19.15;;;;;;;;;;5050129;28;20055;-72
2022/01/13 05:49:14;;;;;;;92.10;19.27;;;;;;;;;;5047113;28;20057;-71
2022/01/13 05:51:41;;;;;;;68.63;17.20;;;;;;;;;;5042849;28;20058;-71
2022/01/13 05:54:07;;;;;;;120.18;20.75;;;;;;;;;;5046466;28;20060;-72
2022/01/13 05:56:33;;;;;;;82.35;18.38;;;;;;;;;;5051962;28;20041;-72
2022/01/13 05:58:59;;;;;;;85.90;19.55;;;;;;;;;;5052074;28;20061;-72
2022/01/13 06:01:26;;;;;;;75.60;16.95;;;;;;;;;;5054581;28;20053;-71
2022/01/13 06:03:53;;;;;;;74.95;19.52;;;;;;;;;;5055253;28;20523;-72
2022/01/13 06:06:19;;;;;;;64.90;17.38;;;;;;;;;;5055275;28;20501;-72
2022/01/13 06:08:46;;;;;;;100.18;20.73;;;;;;;;;;5055286;28;20132;-71
2022/01/13 06:11:12;;;;;;;92.55;20.25;;;;;;;;;;5055083;28;20058;-71
2022/01/13 06:13:38;;;;;;;83.78;18.77;;;;;;;;;;5054314;28;20050;-71
2022/01/13 06:16:05;;;;;;;86.70;19.45;;;;;;;;;;5055139;28;20045;-71
2022/01/13 06:18:31;;;;;;;114.00;21.17;;;;;;;;;;5055627;28;20060;-73
2022/01/13 06:20:57;;;;;;;93.32;19.10;;;;;;;;;;5054604;28;20129;-72
2022/01/13 06:23:29;;;;;;;83.88;19.88;;;;;;;;;;5054657;28;20053;-73
2022/01/13 06:25:57;;;;;;;105.63;19.40;;;;;;;;;;5054594;28;20533;-72
2022/01/13 06:28:24;;;;;;;109.30;20.92;;;;;;;;;;5053359;28;20509;-73
2022/01/13 06:30:50;;;;;;;106.47;20.05;;;;;;;;;;5054786;28;20144;-72
2022/01/13 06:33:16;;;;;;;100.70;21.23;;;;;;;;;;5053618;28;20065;-71
2022/01/13 06:35:43;;;;;;;77.82;18.50;;;;;;;;;;5055015;28;20051;-72
2022/01/13 06:38:09;;;;;;;81.45;19.45;;;;;;;;;;5055159;28;20523;-72
2022/01/13 06:40:35;;;;;;;85.13;20.48;;;;;;;;;;5054919;28;20092;-72
2022/01/13 06:43:01;;;;;;;73.38;19.65;;;;;;;;;;5054087;28;20223;-71
2022/01/13 06:45:28;;;;;;;102.03;22.15;;;;;;;;;;5054339;28;20136;-71
2022/01/13 06:47:54;;;;;;;108.95;21.38;;;;;;;;;;5050377;28;20515;-70
2022/01/13 06:50:21;;;;;;;68.63;17.85;;;;;;;;;;5047739;28;20064;-71
2022/01/13 06:52:48;;;;;;;102.47;20.33;;;;;;;;;;5051109;28;20064;-71
2022/01/13 06:55:14;;;;;;;68.55;19.85;;;;;;;;;;5051237;28;20496;-71
2022/01/13 06:57:41;;;;;;;83.50;19.15;;;;;;;;;;5053867;28;20064;-71
2022/01/13 07:00:07;;;;;;;84.32;19.55;;;;;;;;;;5049879;28;20057;-71
2022/01/13 07:02:34;;;;;;;76.13;19.58;;;;;;;;;;5050684;28;20049;-70
2022/01/13 07:05:01;;;;;;;83.72;19.48;;;;;;;;;;5051215;28;20515;-70
2022/01/13 07:07:32;;;;;;;94.43;19.40;;;;;;;;;;5050794;28;20527;-70
2022/01/13 07:10:04;;;;;;;73.63;17.98;;;;;;;;;;5050967;28;20103;-71
2022/01/13 07:12:30;;;;;;;92.65;21.05;;;;;;;;;;5051350;28;20148;-71
2022/01/13 07:14:57;;;;;;;92.82;19.50;;;;;;;;;;5054232;28;20046;-70
2022/01/13 07:17:24;;;;;;;96.50;20.25;;;;;;;;;;5049555;28;20431;-71
2022/01/13 07:19:53;;;;;;;65.93;18.00;;;;;;;;;;5050559;28;20058;-72
2022/01/13 07:22:19;;;;;;;95.85;19.88;;;;;;;;;;5053805;28;20134;-72
2022/01/13 07:24:46;;;;;;;100.75;19.80;;;;;;;;;;5050932;28;20509;-71
2022/01/13 07:27:12;;;;;;;77.85;19.35;;;;;;;;;;5050188;28;20065;-72
2022/01/13 07:29:45;;;;;;;79.20;18.67;;;;;;;;;;5050602;28;20475;-71
2022/01/13 07:32:12;;;;;;;75.82;18.95;;;;;;;;;;5050971;28;20535;-71
2022/01/13 07:34:39;;;;;;;75.95;18.75;;;;;;;;;;5050132;28;20055;-71
2022/01/13 07:37:05;;;;;;;64.18;17.08;;;;;;;;;;5052716;28;20080;-71
2022/01/13 07:39:32;;;;;;;78.63;18.77;;;;;;;;;;5052993;28;20053;-70
2022/01/13 07:41:58;;;;;;;66.68;17.23;;;;;;;;;;5050189;28;20576;-71
2022/01/13 07:44:26;;;;;;;79.65;20.38;;;;;;;;;;5050873;28;20092;-71
2022/01/13 07:46:53;;;;;;;75.50;18.98;;;;;;;;;;5050958;28;20056;-70
2022/01/13 07:49:19;;;;;;;70.88;18.17;;;;;;;;;;5053365;28;20049;-70
2022/01/13 07:51:45;;;;;;;71.13;17.65;;;;;;;;;;5052523;28;20061;-70
2022/01/13 07:54:11;;;;;;;65.82;17.85;;;;;;;;;;5050300;28;20054;-70
2022/01/13 07:56:38;;;;;;;57.03;17.13;;;;;;;;;;5050786;28;20060;-70
2022/01/13 07:59:04;;;;;;;55.67;17.80;;;;;;;;;;5053663;28;20064;-70
2022/01/13 08:01:30;;;;;;;79.85;18.45;;;;;;;;;;5051606;28;20068;-72
2022/01/13 08:03:57;;;;;;;79.15;18.13;;;;;;;;;;5050336;28;20493;-71
2022/01/13 08:06:23;;;;;;;61.17;17.52;;;;;;;;;;5049835;28;20064;-70
2022/01/13 08:08:49;;;;;;;49.92;16.25;;;;;;;;;;5053333;28;20058;-72
2022/01/13 08:11:16;;;;;;;72.18;20.17;;;;;;;;;;5053202;28;20076;-72
2022/01/13 08:13:43;;;;;;;55.50;17.58;;;;;;;;;;5053315;28;20132;-71
2022/01/13 08:16:10;;;;;;;69.43;18.65;;;;;;;;;;5051312;28;20053;-71
2022/01/13 08:21:23;;;;;;;56.45;17.15;;;;;;;;;;5050419;28;20507;-72
2022/01/13 08:23:50;;;;;;;49.72;17.45;;;;;;;;;;5050227;28;20059;-71
2022/01/13 08:26:17;;;;;;;66.40;18.27;;;;;;;;;;5052373;28;20060;-70
2022/01/13 08:28:43;;;;;;;70.03;18.40;;;;;;;;;;5052441;28;20061;-71
2022/01/13 08:31:10;;;;;;;56.50;19.05;;;;;;;;;;5051206;28;20080;-70
2022/01/13 08:33:36;;;;;;;61.80;17.83;;;;;;;;;;5050431;28;20045;-71
2022/01/13 08:36:03;;;;;;;57.28;18.02;;;;;;;;;;5050685;28;20137;-71
2022/01/13 08:38:29;;;;;;;60.38;17.98;;;;;;;;;;5050659;28;20061;-71
2022/01/13 08:40:57;;;;;;;54.45;17.63;;;;;;;;;;5050261;28;20535;-71
2022/01/13 08:43:24;;;;;;;71.15;18.23;;;;;;;;;;5050719;28;20567;-72
2022/01/13 08:45:51;;;;;;;60.22;19.05;;;;;;;;;;5051329;28;20053;-72
2022/01/13 08:48:17;;;;;;;50.15;16.17;;;;;;;;;;5049251;28;20054;-71
2022/01/13 08:50:43;;;;;;;66.07;18.10;;;;;;;;;;5050807;28;20064;-71
2022/01/13 08:53:10;;;;;;;60.20;17.67;;;;;;;;;;5050094;28;20060;-72
2022/01/13 08:55:36;;;;;;;58.58;16.40;;;;;;;;;;5051244;28;20063;-72
2022/01/13 08:58:03;;;;;;;56.72;16.73;;;;;;;;;;5050270;28;20527;-71
2022/01/13 09:00:29;;;;;;;59.75;17.77;;;;;;;;;;5049512;28;20065;-71
2022/01/13 09:02:55;;;;;;;59.53;17.40;;;;;;;;;;5050623;28;20111;-72
2022/01/13 09:05:22;;;;;;;53.65;17.80;;;;;;;;;;5049520;28;20057;-72
2022/01/13 09:07:48;;;;;;;65.05;17.48;;;;;;;;;;5051051;28;20054;-72
2022/01/13 09:10:16;;;;;;;54.63;17.48;;;;;;;;;;5050205;28;20068;-72
2022/01/13 09:12:43;;;;;;;70.47;17.17;;;;;;;;;;5050942;28;20085;-72
2022/01/13 09:15:30;;;;;;;58.40;18.30;;;;;;;;;;5051022;28;20056;-71
2022/01/13 09:17:59;;;;;;;77.82;20.92;;;;;;;;;;5051965;28;20057;-72
2022/01/13 09:20:25;;;;;;;59.75;18.13;;;;;;;;;;5050553;28;20050;-72
2022/01/13 09:22:51;;;;;;;59.63;17.25;;;;;;;;;;5050610;28;20053;-72
2022/01/13 09:25:17;;;;;;;54.45;17.60;;;;;;;;;;5051432;28;20053;-71
2022/01/13 09:27:44;;;;;;;64.82;18.73;;;;;;;;;;5050771;28;20084;-72
2022/01/13 09:30:12;;;;;;;56.10;16.48;;;;;;;;;;5050253;28;20485;-72
2022/01/13 09:32:38;;;;;;;59.38;17.75;;;;;;;;;;5051114;28;20060;-72
2022/01/13 09:35:05;;;;;;;63.72;19.13;;;;;;;;;;5053858;28;20059;-70
2022/01/13 09:37:32;;;;;;;52.42;18.08;;;;;;;;;;5056396;28;20060;-70
2022/01/13 09:39:58;;;;;;;82.22;19.35;;;;;;;;;;5054304;28;20053;-71
2022/01/13 09:42:25;;;;;;;60.53;18.90;;;;;;;;;;5053783;28;20144;-70
2022/01/13 09:44:53;;;;;;;61.42;18.17;;;;;;;;;;5053151;28;20053;-71
2022/01/13 09:47:19;;;;;;;51.60;17.33;;;;;;;;;;5054579;28;20133;-72
2022/01/13 09:49:49;;;;;;;64.20;17.92;;;;;;;;;;5055138;28;20065;-72
2022/01/13 09:52:19;;;;;;;63.58;18.58;;;;;;;;;;5054967;28;20519;-72
2022/01/13 09:54:45;;;;;;;71.38;17.63;;;;;;;;;;5054266;28;20045;-71
2022/01/13 09:57:11;;;;;;;74.63;19.20;;;;;;;;;;5053801;28;20064;-72
2022/01/13 09:59:38;;;;;;;53.88;17.13;;;;;;;;;;5053459;28;20891;-71
2022/01/13 10:02:04;;;;;;;62.75;18.80;;;;;;;;;;5052197;28;20061;-73
2022/01/13 10:04:46;;;;;;;55.47;17.48;;;;;;;;;;5053427;28;20099;-72
2022/01/13 10:07:17;;;;;;;67.72;19.15;;;;;;;;;;5053150;28;20060;-72
2022/01/13 10:09:53;;;;;;;81.28;18.60;;;;;;;;;;5053956;28;20053;-72
2022/01/13 10:12:22;;;;;;;65.95;17.88;;;;;;;;;;5055639;28;20054;-72
2022/01/13 10:17:23;;;;;;;77.45;20.65;;;;;;;;;;5055920;28;20060;-71
2022/01/13 10:19:50;;;;;;;73.90;18.48;;;;;;;;;;5055890;28;20058;-71
2022/01/13 10:22:21;;;;;;;61.90;17.67;;;;;;;;;;5052870;28;20137;-71
2022/01/13 10:24:48;;;;;;;67.30;19.15;;;;;;;;;;5046699;28;20057;-71
2022/01/13 10:27:19;;;;;;;64.95;19.35;;;;;;;;;;5050473;28;20045;-71
2022/01/13 10:29:50;;;;;;;70.13;19.45;;;;;;;;;;5055264;28;20053;-71
2022/01/13 10:32:25;;;;;;;70.05;19.33;;;;;;;;;;5052265;28;20049;-72
2022/01/13 10:34:57;;;;;;;61.80;19.90;;;;;;;;;;5053023;28;20052;-71
2022/01/13 10:37:34;;;;;;;79.25;19.85;;;;;;;;;;5053261;28;20049;-72
2022/01/13 10:40:02;;;;;;;78.70;20.35;;;;;;;;;;5053232;28;20939;-71
2022/01/13 10:44:58;;;;;;;64.95;18.52;;;;;;;;;;5073428;28;20057;-70
2022/01/13 10:47:28;;;;;;;75.97;23.05;;;;;;;;;;5071472;28;20099;-71
2022/01/13 10:49:58;;;;;;;59.03;19.08;;;;;;;;;;5072646;28;20144;-71
2022/01/13 10:52:26;;;;;;;71.57;19.92;;;;;;;;;;5049766;28;20054;-71
2022/01/13 10:54:54;;;;;;;82.93;21.42;;;;;;;;;;5052478;28;20049;-72
2022/01/13 10:57:22;;;;;;;67.30;19.52;;;;;;;;;;5052418;28;20139;-71
2022/01/13 10:59:48;;;;;;;60.67;18.38;;;;;;;;;;5050783;28;20515;-70
2022/01/13 11:02:16;;;;;;;62.50;20.60;;;;;;;;;;5048942;28;20064;-70
2022/01/13 11:04:43;;;;;;;63.22;18.88;;;;;;;;;;5050848;28;20076;-71
2022/01/13 11:07:11;;;;;;;60.60;19.02;;;;;;;;;;5051213;28;20424;-72
2022/01/13 11:09:42;;;;;;;59.95;18.23;;;;;;;;;;5034046;28;20060;-71
2022/01/13 11:12:13;;;;;;;67.53;20.23;;;;;;;;;;5031193;28;20057;-71
2022/01/13 11:14:43;;;;;;;67.22;19.80;;;;;;;;;;5036133;28;20057;-71
2022/01/13 11:17:10;;;;;;;71.85;20.92;;;;;;;;;;5051591;28;20058;-72
2022/01/13 11:19:41;;;;;;;60.25;19.25;;;;;;;;;;5051891;28;20053;-70
2022/01/13 11:22:09;;;;;;;68.15;20.15;;;;;;;;;;5042917;28;20055;-71
2022/01/13 11:24:35;;;;;;;68.88;20.40;;;;;;;;;;5049000;28;20663;-70
2022/01/13 11:27:02;;;;;;;64.07;20.52;;;;;;;;;;5049755;28;20054;-70
2022/01/13 11:29:29;;;;;;;66.05;19.42;;;;;;;;;;5071195;28;20084;-71
2022/01/13 11:31:57;;;;;;;81.82;19.70;;;;;;;;;;5068646;28;20092;-70
2022/01/13 11:34:24;;;;;;;62.78;19.67;;;;;;;;;;5050571;28;20484;-70
2022/01/13 11:36:51;;;;;;;64.65;21.00;;;;;;;;;;5037371;28;20049;-73
2022/01/13 11:39:17;;;;;;;77.72;21.38;;;;;;;;;;5051428;28;20428;-71
2022/01/13 11:42:00;;;;;;;74.38;20.52;;;;;;;;;;5051997;28;20050;-71
2022/01/13 11:44:27;;;;;;;59.80;19.00;;;;;;;;;;5051797;28;20049;-71
2022/01/13 11:46:54;;;;;;;84.85;22.40;;;;;;;;;;5052116;28;20053;-71
2022/01/13 11:49:24;;;;;;;61.35;20.55;;;;;;;;;;5062919;28;20058;-71
2022/01/13 11:52:11;;;;;;;62.40;21.50;;;;;;;;;;5050923;28;20052;-70
2022/01/13 11:54:38;;;;;;;63.90;20.77;;;;;;;;;;5049064;28;20056;-71
2022/01/13 11:57:26;;;;;;;64.15;20.17;;;;;;;;;;5051052;28;20056;-71
2022/01/13 11:59:55;;;;;;;71.82;21.73;;;;;;;;;;5053299;28;20530;-70
2022/01/13 12:02:22;;;;;;;64.45;20.55;;;;;;;;;;5052312;28;20066;-69
2022/01/13 12:04:58;;;;;;;79.03;22.55;;;;;;;;;;5051981;28;20934;-70
2022/01/13 12:07:35;;;;;;;68.38;22.15;;;;;;;;;;5052009;28;20193;-71
2022/01/13 12:10:06;;;;;;;77.95;22.80;;;;;;;;;;5051744;28;20057;-71
2022/01/13 12:12:34;;;;;;;81.43;22.92;;;;;;;;;;5050637;28;20551;-69
2022/01/13 12:15:18;;;;;;;78.38;21.52;;;;;;;;;;5053409;28;20497;-70
2022/01/13 12:17:46;;;;;;;67.68;21.63;;;;;;;;;;5053288;28;20060;-70
2022/01/13 12:20:38;;;;;;;80.13;21.40;;;;;;;;;;5053418;28;20054;-73
2022/01/13 12:23:16;;;;;;;79.90;21.42;;;;;;;;;;5053255;28;20136;-69
2022/01/13 12:25:43;;;;;;;90.72;21.13;;;;;;;;;;5052645;28;20554;-71
2022/01/13 12:28:14;;;;;;;76.20;21.25;;;;;;;;;;5050824;28;20057;-71
2022/01/13 12:30:40;;;;;;;62.50;21.40;;;;;;;;;;5052786;28;20042;-71
2022/01/13 12:33:10;;;;;;;67.15;20.27;;;;;;;;;;5051622;28;20097;-70
2022/01/13 12:35:39;;;;;;;64.65;20.67;;;;;;;;;;5051550;28;20049;-70
2022/01/13 12:38:07;;;;;;;58.08;18.98;;;;;;;;;;5053295;28;20050;-71
2022/01/13 12:40:43;;;;;;;53.17;18.67;;;;;;;;;;5050158;28;20061;-71
2022/01/13 12:43:21;;;;;;;54.60;18.83;;;;;;;;;;5050551;28;20510;-70
2022/01/13 12:45:48;;;;;;;65.38;18.48;;;;;;;;;;5047234;28;20104;-71
2022/01/13 12:48:15;;;;;;;68.45;18.42;;;;;;;;;;5046996;28;20476;-71
2022/01/13 12:50:42;;;;;;;55.83;18.45;;;;;;;;;;5055803;28;20059;-72
2022/01/13 12:53:17;;;;;;;56.17;17.92;;;;;;;;;;5053344;28;20054;-70
2022/01/13 12:55:57;;;;;;;50.03;19.10;;;;;;;;;;5052513;28;20140;-70
2022/01/13 12:58:28;;;;;;;54.53;17.73;;;;;;;;;;5049317;28;20061;-71
2022/01/13 13:01:03;;;;;;;64.00;18.85;;;;;;;;;;5049195;28;20128;-72
2022/01/13 13:03:29;;;;;;;71.43;20.13;;;;;;;;;;5049049;28;20053;-70
2022/01/13 13:05:56;;;;;;;54.47;18.33;;;;;;;;;;5049288;28;20158;-70
2022/01/13 13:08:24;;;;;;;59.88;18.15;;;;;;;;;;5048723;28;20608;-70
2022/01/13 13:10:53;;;;;;;49.53;18.27;;;;;;;;;;5052428;28;20049;-71
2022/01/13 13:13:19;;;;;;;51.55;19.13;;;;;;;;;;5051440;28;20140;-70
2022/01/13 13:15:50;;;;;;;51.53;19.45;;;;;;;;;;5045492;28;20417;-71
2022/01/13 13:18:18;;;;;;;53.85;19.45;;;;;;;;;;5047095;28;20065;-72
2022/01/13 13:20:48;;;;;;;51.95;19.73;;;;;;;;;;5050868;28;20148;-71
2022/01/13 13:23:15;;;;;;;56.63;20.58;;;;;;;;;;5050612;28;20085;-72
2022/01/13 13:25:43;;;;;;;56.05;20.83;;;;;;;;;;5054687;28;20924;-71
2022/01/13 13:28:32;;;;;;;50.38;19.98;;;;;;;;;;5045332;28;20052;-72
2022/01/13 13:31:16;;;;;;;51.05;20.25;;;;;;;;;;5050377;28;20050;-71
2022/01/13 13:33:49;;;;;;;47.25;19.95;;;;;;;;;;5050754;28;20053;-71
2022/01/13 13:36:21;;;;;;;52.65;20.25;;;;;;;;;;5050666;28;20083;-71
2022/01/13 13:38:53;;;;;;;50.65;19.50;;;;;;;;;;5051736;28;20590;-71
2022/01/13 13:41:21;;;;;;;52.22;20.42;;;;;;;;;;5051172;28;20059;-71
2022/01/13 13:44:08;;;;;;;54.50;20.48;;;;;;;;;;5050780;28;20064;-71
2022/01/13 13:46:42;;;;;;;49.33;21.17;;;;;;;;;;5048985;28;20064;-70
2022/01/13 13:49:08;;;;;;;48.35;19.80;;;;;;;;;;5049331;28;20505;-70
2022/01/13 13:51:35;;;;;;;50.42;19.63;;;;;;;;;;5048067;28;20080;-70
2022/01/13 13:54:06;;;;;;;48.33;19.15;;;;;;;;;;5049838;28;20058;-71
2022/01/13 13:56:34;;;;;;;53.17;20.30;;;;;;;;;;5049958;28;20058;-70
2022/01/13 13:59:00;;;;;;;45.05;19.80;;;;;;;;;;5050441;28;20503;-70
2022/01/13 14:01:28;;;;;;;50.67;20.67;;;;;;;;;;5049260;28;20148;-70
2022/01/13 14:03:54;;;;;;;44.55;19.42;;;;;;;;;;5049685;28;20053;-71
2022/01/13 14:06:40;;;;;;;54.70;19.92;;;;;;;;;;5051394;28;20497;-70
2022/01/13 14:09:07;;;;;;;51.65;19.77;;;;;;;;;;5052427;28;20145;-71
2022/01/13 14:11:46;;;;;;;54.50;22.23;;;;;;;;;;5052087;28;20045;-72
2022/01/13 14:14:14;;;;;;;45.72;20.02;;;;;;;;;;5051580;28;20064;-70
2022/01/13 14:16:41;;;;;;;48.25;20.58;;;;;;;;;;5049854;28;20065;-70
2022/01/13 14:19:09;;;;;;;48.78;19.05;;;;;;;;;;5047708;28;20046;-70
2022/01/13 14:21:46;;;;;;;44.97;19.48;;;;;;;;;;5050913;28;20050;-70
2022/01/13 14:24:12;;;;;;;54.85;21.33;;;;;;;;;;5053011;28;20050;-71
2022/01/13 14:26:38;;;;;;;53.08;21.13;;;;;;;;;;5053729;28;20063;-70
2022/01/13 14:29:04;;;;;;;45.80;19.33;;;;;;;;;;5053131;28;20501;-71
2022/01/13 14:31:35;;;;;;;46.08;19.42;;;;;;;;;;5054968;28;20434;-71
2022/01/13 14:34:01;;;;;;;53.50;20.48;;;;;;;;;;5055048;28;20063;-71
2022/01/13 14:36:35;;;;;;;48.08;20.75;;;;;;;;;;5053169;28;20096;-71
2022/01/13 14:39:08;;;;;;;45.15;20.65;;;;;;;;;;5052815;28;20050;-71
2022/01/13 14:41:39;;;;;;;54.55;21.52;;;;;;;;;;5053083;28;20076;-71
2022/01/13 14:44:11;;;;;;;47.70;21.90;;;;;;;;;;5039316;28;20064;-71
2022/01/13 14:46:42;;;;;;;50.33;20.30;;;;;;;;;;5046752;28;20555;-71
2022/01/13 14:49:10;;;;;;;52.45;20.88;;;;;;;;;;5054542;28;20107;-70
2022/01/13 14:51:42;;;;;;;46.22;21.95;;;;;;;;;;5052887;28;20060;-69
2022/01/13 14:54:09;;;;;;;52.38;21.55;;;;;;;;;;5052554;28;20530;-70